sensor_id;sensor_type;location;lat;lon;timestamp;P1;durP1;ratioP1;P2;durP2;ratioP2
80257;SDS011;69565;37.974;23.708;2023-05-16T00:00:16;17.05;;;3.78;;
80257;SDS011;69565;37.974;23.708;2023-05-16T00:02:42;10.00;;;3.00;;
80257;SDS011;69565;37.974;23.708;2023-05-16T00:05:08;13.23;;;3.75;;
80257;SDS011;69565;37.974;23.708;2023-05-16T00:07:43;10.80;;;3.55;;
80257;SDS011;69565;37.974;23.708;2023-05-16T00:10:10;15.45;;;3.75;;
80257;SDS011;69565;37.974;23.708;2023-05-16T00:12:36;10.05;;;4.30;;
80257;SDS011;69565;37.974;23.708;2023-05-16T00:15:03;15.85;;;3.63;;
80257;SDS011;69565;37.974;23.708;2023-05-16T00:17:32;9.25;;;3.60;;
80257;SDS011;69565;37.974;23.708;2023-05-16T00:19:59;18.95;;;5.22;;
80257;SDS011;69565;37.974;23.708;2023-05-16T00:22:35;18.48;;;3.88;;
80257;SDS011;69565;37.974;23.708;2023-05-16T00:25:03;12.00;;;3.30;;
80257;SDS011;69565;37.974;23.708;2023-05-16T00:27:29;5.70;;;3.40;;
80257;SDS011;69565;37.974;23.708;2023-05-16T00:29:55;9.55;;;4.50;;
80257;SDS011;69565;37.974;23.708;2023-05-16T00:32:21;20.58;;;4.53;;
80257;SDS011;69565;37.974;23.708;2023-05-16T00:34:46;11.18;;;3.83;;
80257;SDS011;69565;37.974;23.708;2023-05-16T00:37:12;11.20;;;4.30;;
80257;SDS011;69565;37.974;23.708;2023-05-16T00:39:38;15.30;;;4.00;;
80257;SDS011;69565;37.974;23.708;2023-05-16T00:42:04;14.68;;;3.88;;
80257;SDS011;69565;37.974;23.708;2023-05-16T00:44:30;14.50;;;3.70;;
80257;SDS011;69565;37.974;23.708;2023-05-16T00:46:55;13.35;;;4.72;;
80257;SDS011;69565;37.974;23.708;2023-05-16T00:49:22;12.52;;;4.30;;
80257;SDS011;69565;37.974;23.708;2023-05-16T00:51:48;9.48;;;4.10;;
80257;SDS011;69565;37.974;23.708;2023-05-16T00:54:14;10.35;;;4.00;;
80257;SDS011;69565;37.974;23.708;2023-05-16T00:56:39;10.63;;;3.67;;
80257;SDS011;69565;37.974;23.708;2023-05-16T00:59:05;10.73;;;4.30;;
80257;SDS011;69565;37.974;23.708;2023-05-16T01:01:31;12.32;;;4.78;;
80257;SDS011;69565;37.974;23.708;2023-05-16T01:03:57;13.98;;;4.00;;
80257;SDS011;69565;37.974;23.708;2023-05-16T01:06:24;15.98;;;3.75;;
80257;SDS011;69565;37.974;23.708;2023-05-16T01:08:50;9.57;;;3.65;;
80257;SDS011;69565;37.974;23.708;2023-05-16T01:14:08;7.97;;;3.28;;
80257;SDS011;69565;37.974;23.708;2023-05-16T01:17:04;13.70;;;3.38;;
80257;SDS011;69565;37.974;23.708;2023-05-16T01:30:34;9.38;;;2.75;;
80257;SDS011;69565;37.974;23.708;2023-05-16T01:33:02;6.45;;;2.30;;
80257;SDS011;69565;37.974;23.708;2023-05-16T01:35:29;6.80;;;2.72;;
80257;SDS011;69565;37.974;23.708;2023-05-16T01:43:19;5.05;;;2.33;;
80257;SDS011;69565;37.974;23.708;2023-05-16T01:45:56;10.68;;;2.92;;
80257;SDS011;69565;37.974;23.708;2023-05-16T01:48:32;14.88;;;2.45;;
80257;SDS011;69565;37.974;23.708;2023-05-16T01:51:04;11.23;;;2.55;;
80257;SDS011;69565;37.974;23.708;2023-05-16T01:53:32;9.60;;;2.42;;
80257;SDS011;69565;37.974;23.708;2023-05-16T01:56:04;5.60;;;2.33;;
80257;SDS011;69565;37.974;23.708;2023-05-16T01:58:35;9.20;;;2.10;;
80257;SDS011;69565;37.974;23.708;2023-05-16T02:01:02;7.30;;;2.50;;
80257;SDS011;69565;37.974;23.708;2023-05-16T02:03:29;9.80;;;2.20;;
80257;SDS011;69565;37.974;23.708;2023-05-16T02:05:55;5.30;;;2.30;;
80257;SDS011;69565;37.974;23.708;2023-05-16T02:08:21;11.45;;;2.45;;
80257;SDS011;69565;37.974;23.708;2023-05-16T02:10:48;9.02;;;1.77;;
80257;SDS011;69565;37.974;23.708;2023-05-16T02:13:14;5.05;;;2.08;;
80257;SDS011;69565;37.974;23.708;2023-05-16T02:15:40;8.20;;;2.10;;
80257;SDS011;69565;37.974;23.708;2023-05-16T02:18:05;9.82;;;2.38;;
80257;SDS011;69565;37.974;23.708;2023-05-16T02:20:31;7.47;;;1.83;;
80257;SDS011;69565;37.974;23.708;2023-05-16T02:22:57;5.20;;;1.98;;
80257;SDS011;69565;37.974;23.708;2023-05-16T02:25:23;5.70;;;2.00;;
80257;SDS011;69565;37.974;23.708;2023-05-16T02:27:49;7.15;;;1.85;;
80257;SDS011;69565;37.974;23.708;2023-05-16T02:30:15;6.43;;;2.08;;
80257;SDS011;69565;37.974;23.708;2023-05-16T02:32:40;9.02;;;2.97;;
80257;SDS011;69565;37.974;23.708;2023-05-16T02:35:09;10.82;;;2.78;;
80257;SDS011;69565;37.974;23.708;2023-05-16T02:37:34;5.65;;;2.20;;
80257;SDS011;69565;37.974;23.708;2023-05-16T02:40:01;5.57;;;2.25;;
80257;SDS011;69565;37.974;23.708;2023-05-16T02:42:29;10.30;;;2.75;;
80257;SDS011;69565;37.974;23.708;2023-05-16T02:44:56;8.95;;;1.85;;
80257;SDS011;69565;37.974;23.708;2023-05-16T02:47:21;6.60;;;1.45;;
80257;SDS011;69565;37.974;23.708;2023-05-16T02:49:47;8.13;;;1.83;;
80257;SDS011;69565;37.974;23.708;2023-05-16T02:52:13;8.45;;;2.03;;
80257;SDS011;69565;37.974;23.708;2023-05-16T02:54:39;7.03;;;2.00;;
80257;SDS011;69565;37.974;23.708;2023-05-16T02:57:04;7.10;;;2.25;;
80257;SDS011;69565;37.974;23.708;2023-05-16T02:59:30;7.70;;;2.00;;
80257;SDS011;69565;37.974;23.708;2023-05-16T03:01:56;8.75;;;2.42;;
80257;SDS011;69565;37.974;23.708;2023-05-16T03:04:21;11.20;;;2.08;;
80257;SDS011;69565;37.974;23.708;2023-05-16T03:06:47;7.43;;;1.70;;
80257;SDS011;69565;37.974;23.708;2023-05-16T03:09:15;17.20;;;2.03;;
80257;SDS011;69565;37.974;23.708;2023-05-16T03:11:41;8.63;;;2.40;;
80257;SDS011;69565;37.974;23.708;2023-05-16T03:14:07;7.43;;;2.10;;
80257;SDS011;69565;37.974;23.708;2023-05-16T03:16:33;10.80;;;1.88;;
80257;SDS011;69565;37.974;23.708;2023-05-16T03:19:00;8.75;;;1.80;;
80257;SDS011;69565;37.974;23.708;2023-05-16T03:21:27;9.23;;;2.03;;
80257;SDS011;69565;37.974;23.708;2023-05-16T03:23:52;9.05;;;2.28;;
80257;SDS011;69565;37.974;23.708;2023-05-16T03:26:19;7.32;;;1.98;;
80257;SDS011;69565;37.974;23.708;2023-05-16T03:28:45;14.70;;;2.58;;
80257;SDS011;69565;37.974;23.708;2023-05-16T03:31:11;10.63;;;2.25;;
80257;SDS011;69565;37.974;23.708;2023-05-16T03:33:36;7.15;;;2.35;;
80257;SDS011;69565;37.974;23.708;2023-05-16T03:36:02;11.32;;;2.65;;
80257;SDS011;69565;37.974;23.708;2023-05-16T03:38:29;23.67;;;3.05;;
80257;SDS011;69565;37.974;23.708;2023-05-16T03:40:55;12.05;;;2.83;;
80257;SDS011;69565;37.974;23.708;2023-05-16T03:43:21;18.52;;;3.10;;
80257;SDS011;69565;37.974;23.708;2023-05-16T03:45:46;15.82;;;2.90;;
80257;SDS011;69565;37.974;23.708;2023-05-16T03:48:12;12.32;;;2.08;;
80257;SDS011;69565;37.974;23.708;2023-05-16T03:50:38;17.05;;;2.75;;
80257;SDS011;69565;37.974;23.708;2023-05-16T03:53:03;13.50;;;3.00;;
80257;SDS011;69565;37.974;23.708;2023-05-16T03:55:29;12.90;;;2.95;;
80257;SDS011;69565;37.974;23.708;2023-05-16T03:57:55;14.45;;;2.72;;
80257;SDS011;69565;37.974;23.708;2023-05-16T04:00:21;8.85;;;2.10;;
80257;SDS011;69565;37.974;23.708;2023-05-16T04:02:47;11.98;;;2.17;;
80257;SDS011;69565;37.974;23.708;2023-05-16T04:05:12;13.35;;;2.10;;
80257;SDS011;69565;37.974;23.708;2023-05-16T04:07:38;14.75;;;2.80;;
80257;SDS011;69565;37.974;23.708;2023-05-16T04:10:05;21.42;;;2.25;;
80257;SDS011;69565;37.974;23.708;2023-05-16T04:12:31;13.10;;;2.30;;
80257;SDS011;69565;37.974;23.708;2023-05-16T04:14:57;13.68;;;2.58;;
80257;SDS011;69565;37.974;23.708;2023-05-16T04:17:23;13.75;;;2.17;;
80257;SDS011;69565;37.974;23.708;2023-05-16T04:19:48;23.92;;;4.38;;
80257;SDS011;69565;37.974;23.708;2023-05-16T04:22:14;22.67;;;3.50;;
80257;SDS011;69565;37.974;23.708;2023-05-16T04:24:40;21.48;;;3.10;;
80257;SDS011;69565;37.974;23.708;2023-05-16T04:27:06;35.83;;;3.35;;
80257;SDS011;69565;37.974;23.708;2023-05-16T04:29:33;21.75;;;3.13;;
80257;SDS011;69565;37.974;23.708;2023-05-16T04:31:59;28.00;;;2.85;;
80257;SDS011;69565;37.974;23.708;2023-05-16T04:34:25;25.58;;;3.45;;
80257;SDS011;69565;37.974;23.708;2023-05-16T04:36:52;21.20;;;3.85;;
80257;SDS011;69565;37.974;23.708;2023-05-16T04:39:18;16.25;;;2.45;;
80257;SDS011;69565;37.974;23.708;2023-05-16T04:41:44;20.65;;;2.65;;
80257;SDS011;69565;37.974;23.708;2023-05-16T04:44:10;14.32;;;3.33;;
80257;SDS011;69565;37.974;23.708;2023-05-16T04:46:35;12.43;;;2.47;;
80257;SDS011;69565;37.974;23.708;2023-05-16T04:49:01;19.77;;;2.70;;
80257;SDS011;69565;37.974;23.708;2023-05-16T04:51:27;18.65;;;3.38;;
80257;SDS011;69565;37.974;23.708;2023-05-16T04:53:53;11.63;;;1.92;;
80257;SDS011;69565;37.974;23.708;2023-05-16T04:56:19;10.80;;;1.95;;
80257;SDS011;69565;37.974;23.708;2023-05-16T04:58:45;13.00;;;2.83;;
80257;SDS011;69565;37.974;23.708;2023-05-16T05:01:11;12.48;;;2.92;;
80257;SDS011;69565;37.974;23.708;2023-05-16T05:03:36;10.25;;;2.70;;
80257;SDS011;69565;37.974;23.708;2023-05-16T05:06:02;12.02;;;2.90;;
80257;SDS011;69565;37.974;23.708;2023-05-16T05:08:28;8.95;;;2.15;;
80257;SDS011;69565;37.974;23.708;2023-05-16T05:10:54;10.15;;;2.30;;
80257;SDS011;69565;37.974;23.708;2023-05-16T05:13:20;9.20;;;2.28;;
80257;SDS011;69565;37.974;23.708;2023-05-16T05:15:46;13.23;;;2.22;;
80257;SDS011;69565;37.974;23.708;2023-05-16T05:18:11;11.63;;;2.92;;
80257;SDS011;69565;37.974;23.708;2023-05-16T05:20:37;14.32;;;1.90;;
80257;SDS011;69565;37.974;23.708;2023-05-16T05:23:03;11.32;;;2.05;;
80257;SDS011;69565;37.974;23.708;2023-05-16T05:25:29;16.70;;;2.38;;
80257;SDS011;69565;37.974;23.708;2023-05-16T05:27:54;15.60;;;1.95;;
80257;SDS011;69565;37.974;23.708;2023-05-16T05:30:20;8.65;;;1.95;;
80257;SDS011;69565;37.974;23.708;2023-05-16T05:32:46;12.68;;;1.63;;
80257;SDS011;69565;37.974;23.708;2023-05-16T05:35:11;10.27;;;1.70;;
80257;SDS011;69565;37.974;23.708;2023-05-16T05:37:37;10.93;;;1.73;;
80257;SDS011;69565;37.974;23.708;2023-05-16T05:40:03;14.35;;;1.58;;
80257;SDS011;69565;37.974;23.708;2023-05-16T05:42:29;7.47;;;1.20;;
80257;SDS011;69565;37.974;23.708;2023-05-16T05:44:54;11.15;;;1.38;;
80257;SDS011;69565;37.974;23.708;2023-05-16T05:47:20;8.65;;;1.20;;
80257;SDS011;69565;37.974;23.708;2023-05-16T05:49:46;9.27;;;1.15;;
80257;SDS011;69565;37.974;23.708;2023-05-16T05:52:12;12.55;;;1.27;;
80257;SDS011;69565;37.974;23.708;2023-05-16T05:54:38;11.95;;;1.30;;
80257;SDS011;69565;37.974;23.708;2023-05-16T05:57:03;5.32;;;0.95;;
80257;SDS011;69565;37.974;23.708;2023-05-16T05:59:29;9.60;;;1.13;;
80257;SDS011;69565;37.974;23.708;2023-05-16T06:01:55;9.93;;;1.13;;
80257;SDS011;69565;37.974;23.708;2023-05-16T06:04:21;9.63;;;1.40;;
80257;SDS011;69565;37.974;23.708;2023-05-16T06:06:47;4.15;;;1.00;;
80257;SDS011;69565;37.974;23.708;2023-05-16T06:09:13;5.15;;;1.30;;
80257;SDS011;69565;37.974;23.708;2023-05-16T06:11:39;9.00;;;1.27;;
80257;SDS011;69565;37.974;23.708;2023-05-16T06:14:05;5.60;;;0.90;;
80257;SDS011;69565;37.974;23.708;2023-05-16T06:16:31;8.70;;;0.90;;
80257;SDS011;69565;37.974;23.708;2023-05-16T06:18:57;1.60;;;0.85;;
80257;SDS011;69565;37.974;23.708;2023-05-16T06:21:23;5.50;;;0.80;;
80257;SDS011;69565;37.974;23.708;2023-05-16T06:23:49;10.30;;;1.08;;
80257;SDS011;69565;37.974;23.708;2023-05-16T06:26:14;3.78;;;0.95;;
80257;SDS011;69565;37.974;23.708;2023-05-16T06:28:40;4.60;;;1.10;;
80257;SDS011;69565;37.974;23.708;2023-05-16T06:31:06;4.15;;;0.90;;
80257;SDS011;69565;37.974;23.708;2023-05-16T06:33:32;8.23;;;1.08;;
80257;SDS011;69565;37.974;23.708;2023-05-16T06:35:58;4.28;;;0.85;;
80257;SDS011;69565;37.974;23.708;2023-05-16T06:38:24;2.20;;;0.80;;
80257;SDS011;69565;37.974;23.708;2023-05-16T06:40:49;6.10;;;0.82;;
80257;SDS011;69565;37.974;23.708;2023-05-16T06:43:15;2.72;;;0.70;;
80257;SDS011;69565;37.974;23.708;2023-05-16T06:45:41;2.83;;;0.75;;
80257;SDS011;69565;37.974;23.708;2023-05-16T06:48:08;8.23;;;0.88;;
80257;SDS011;69565;37.974;23.708;2023-05-16T06:50:34;12.63;;;0.80;;
80257;SDS011;69565;37.974;23.708;2023-05-16T06:53:00;7.88;;;0.90;;
80257;SDS011;69565;37.974;23.708;2023-05-16T06:55:26;7.75;;;0.80;;
80257;SDS011;69565;37.974;23.708;2023-05-16T06:57:51;4.70;;;0.80;;
80257;SDS011;69565;37.974;23.708;2023-05-16T07:00:17;3.63;;;1.25;;
80257;SDS011;69565;37.974;23.708;2023-05-16T07:02:43;7.65;;;0.90;;
80257;SDS011;69565;37.974;23.708;2023-05-16T07:05:09;9.88;;;1.23;;
80257;SDS011;69565;37.974;23.708;2023-05-16T07:07:35;7.57;;;0.90;;
80257;SDS011;69565;37.974;23.708;2023-05-16T07:10:01;11.93;;;0.90;;
80257;SDS011;69565;37.974;23.708;2023-05-16T07:12:27;9.80;;;0.80;;
80257;SDS011;69565;37.974;23.708;2023-05-16T07:14:53;8.02;;;0.90;;
80257;SDS011;69565;37.974;23.708;2023-05-16T07:17:19;9.90;;;1.20;;
80257;SDS011;69565;37.974;23.708;2023-05-16T07:19:44;11.23;;;1.02;;
80257;SDS011;69565;37.974;23.708;2023-05-16T07:22:10;17.23;;;1.30;;
80257;SDS011;69565;37.974;23.708;2023-05-16T07:24:36;9.70;;;1.08;;
80257;SDS011;69565;37.974;23.708;2023-05-16T07:27:02;15.40;;;1.00;;
80257;SDS011;69565;37.974;23.708;2023-05-16T07:29:28;15.32;;;1.10;;
80257;SDS011;69565;37.974;23.708;2023-05-16T07:31:54;10.20;;;0.90;;
80257;SDS011;69565;37.974;23.708;2023-05-16T07:34:20;9.02;;;0.90;;
80257;SDS011;69565;37.974;23.708;2023-05-16T07:36:46;17.67;;;0.98;;
80257;SDS011;69565;37.974;23.708;2023-05-16T07:39:12;17.63;;;0.93;;
80257;SDS011;69565;37.974;23.708;2023-05-16T07:41:38;14.05;;;0.88;;
80257;SDS011;69565;37.974;23.708;2023-05-16T07:44:04;6.78;;;0.88;;
80257;SDS011;69565;37.974;23.708;2023-05-16T07:46:30;9.63;;;0.88;;
80257;SDS011;69565;37.974;23.708;2023-05-16T07:48:58;10.90;;;1.00;;
80257;SDS011;69565;37.974;23.708;2023-05-16T07:51:32;13.20;;;1.15;;
80257;SDS011;69565;37.974;23.708;2023-05-16T07:53:57;14.10;;;1.08;;
80257;SDS011;69565;37.974;23.708;2023-05-16T07:56:23;13.40;;;1.27;;
80257;SDS011;69565;37.974;23.708;2023-05-16T07:58:49;14.73;;;1.10;;
80257;SDS011;69565;37.974;23.708;2023-05-16T08:01:15;10.65;;;1.40;;
80257;SDS011;69565;37.974;23.708;2023-05-16T08:03:44;10.13;;;0.98;;
80257;SDS011;69565;37.974;23.708;2023-05-16T08:06:11;10.52;;;1.10;;
80257;SDS011;69565;37.974;23.708;2023-05-16T08:08:37;5.32;;;0.95;;
80257;SDS011;69565;37.974;23.708;2023-05-16T08:11:03;11.77;;;0.85;;
80257;SDS011;69565;37.974;23.708;2023-05-16T08:13:32;9.88;;;0.80;;
80257;SDS011;69565;37.974;23.708;2023-05-16T08:15:57;7.57;;;0.90;;
80257;SDS011;69565;37.974;23.708;2023-05-16T08:18:23;3.40;;;1.00;;
80257;SDS011;69565;37.974;23.708;2023-05-16T08:20:49;7.60;;;0.80;;
80257;SDS011;69565;37.974;23.708;2023-05-16T08:23:15;7.07;;;0.77;;
80257;SDS011;69565;37.974;23.708;2023-05-16T08:25:41;10.50;;;0.93;;
80257;SDS011;69565;37.974;23.708;2023-05-16T08:28:06;10.13;;;1.05;;
80257;SDS011;69565;37.974;23.708;2023-05-16T08:30:32;6.20;;;0.90;;
80257;SDS011;69565;37.974;23.708;2023-05-16T08:32:58;9.20;;;0.90;;
80257;SDS011;69565;37.974;23.708;2023-05-16T08:35:24;11.15;;;0.90;;
80257;SDS011;69565;37.974;23.708;2023-05-16T08:37:49;9.00;;;0.88;;
80257;SDS011;69565;37.974;23.708;2023-05-16T08:40:15;8.80;;;0.80;;
80257;SDS011;69565;37.974;23.708;2023-05-16T08:42:41;7.18;;;0.80;;
80257;SDS011;69565;37.974;23.708;2023-05-16T08:45:07;9.35;;;0.90;;
80257;SDS011;69565;37.974;23.708;2023-05-16T08:47:33;5.75;;;1.00;;
80257;SDS011;69565;37.974;23.708;2023-05-16T08:50:01;10.07;;;1.10;;
80257;SDS011;69565;37.974;23.708;2023-05-16T08:52:28;10.85;;;0.75;;
80257;SDS011;69565;37.974;23.708;2023-05-16T08:54:57;9.65;;;0.70;;
80257;SDS011;69565;37.974;23.708;2023-05-16T08:57:29;6.72;;;0.70;;
80257;SDS011;69565;37.974;23.708;2023-05-16T08:59:56;3.47;;;0.70;;
80257;SDS011;69565;37.974;23.708;2023-05-16T09:02:23;6.85;;;0.80;;
80257;SDS011;69565;37.974;23.708;2023-05-16T09:04:49;7.35;;;0.70;;
80257;SDS011;69565;37.974;23.708;2023-05-16T09:07:18;3.72;;;0.80;;
80257;SDS011;69565;37.974;23.708;2023-05-16T09:09:44;2.88;;;0.80;;
80257;SDS011;69565;37.974;23.708;2023-05-16T09:12:09;3.28;;;0.73;;
80257;SDS011;69565;37.974;23.708;2023-05-16T09:14:35;6.20;;;0.80;;
80257;SDS011;69565;37.974;23.708;2023-05-16T09:17:02;6.80;;;0.70;;
80257;SDS011;69565;37.974;23.708;2023-05-16T09:22:38;8.40;;;0.80;;
80257;SDS011;69565;37.974;23.708;2023-05-16T09:25:04;5.97;;;0.70;;
80257;SDS011;69565;37.974;23.708;2023-05-16T09:27:31;8.27;;;0.73;;
80257;SDS011;69565;37.974;23.708;2023-05-16T09:29:58;6.45;;;0.60;;
80257;SDS011;69565;37.974;23.708;2023-05-16T09:32:24;4.93;;;0.70;;
80257;SDS011;69565;37.974;23.708;2023-05-16T09:34:51;3.20;;;0.60;;
80257;SDS011;69565;37.974;23.708;2023-05-16T09:37:18;4.97;;;0.70;;
80257;SDS011;69565;37.974;23.708;2023-05-16T09:39:50;2.42;;;0.63;;
80257;SDS011;69565;37.974;23.708;2023-05-16T09:42:19;4.13;;;0.90;;
80257;SDS011;69565;37.974;23.708;2023-05-16T09:44:48;3.70;;;0.73;;
80257;SDS011;69565;37.974;23.708;2023-05-16T09:47:16;4.43;;;0.68;;
80257;SDS011;69565;37.974;23.708;2023-05-16T09:49:45;2.53;;;0.70;;
80257;SDS011;69565;37.974;23.708;2023-05-16T09:52:15;2.92;;;0.70;;
80257;SDS011;69565;37.974;23.708;2023-05-16T09:54:41;5.20;;;0.70;;
80257;SDS011;69565;37.974;23.708;2023-05-16T09:57:07;1.70;;;0.70;;
80257;SDS011;69565;37.974;23.708;2023-05-16T09:59:35;4.10;;;0.60;;
80257;SDS011;69565;37.974;23.708;2023-05-16T10:02:01;5.90;;;0.60;;
80257;SDS011;69565;37.974;23.708;2023-05-16T10:04:29;3.97;;;0.70;;
80257;SDS011;69565;37.974;23.708;2023-05-16T10:06:55;7.72;;;0.70;;
80257;SDS011;69565;37.974;23.708;2023-05-16T10:09:22;2.10;;;0.60;;
80257;SDS011;69565;37.974;23.708;2023-05-16T10:11:48;1.48;;;0.50;;
80257;SDS011;69565;37.974;23.708;2023-05-16T10:14:17;6.22;;;0.60;;
80257;SDS011;69565;37.974;23.708;2023-05-16T10:16:45;1.50;;;0.57;;
80257;SDS011;69565;37.974;23.708;2023-05-16T10:19:12;1.45;;;0.50;;
80257;SDS011;69565;37.974;23.708;2023-05-16T10:21:40;1.10;;;0.50;;
80257;SDS011;69565;37.974;23.708;2023-05-16T10:24:10;3.00;;;0.60;;
80257;SDS011;69565;37.974;23.708;2023-05-16T10:26:38;1.58;;;0.50;;
80257;SDS011;69565;37.974;23.708;2023-05-16T10:29:04;7.85;;;0.50;;
80257;SDS011;69565;37.974;23.708;2023-05-16T10:31:31;5.63;;;0.60;;
80257;SDS011;69565;37.974;23.708;2023-05-16T10:33:57;4.13;;;0.50;;
80257;SDS011;69565;37.974;23.708;2023-05-16T10:36:24;1.67;;;0.60;;
80257;SDS011;69565;37.974;23.708;2023-05-16T10:38:50;1.38;;;0.50;;
80257;SDS011;69565;37.974;23.708;2023-05-16T10:41:17;2.17;;;0.60;;
80257;SDS011;69565;37.974;23.708;2023-05-16T10:43:54;1.20;;;0.40;;
80257;SDS011;69565;37.974;23.708;2023-05-16T10:46:22;4.90;;;0.60;;
80257;SDS011;69565;37.974;23.708;2023-05-16T10:48:50;2.22;;;0.55;;
80257;SDS011;69565;37.974;23.708;2023-05-16T10:54:03;7.68;;;0.50;;
80257;SDS011;69565;37.974;23.708;2023-05-16T10:56:34;1.58;;;0.50;;
80257;SDS011;69565;37.974;23.708;2023-05-16T10:59:01;9.77;;;0.50;;
80257;SDS011;69565;37.974;23.708;2023-05-16T11:01:30;6.70;;;0.60;;
80257;SDS011;69565;37.974;23.708;2023-05-16T11:04:07;1.13;;;0.40;;
80257;SDS011;69565;37.974;23.708;2023-05-16T11:06:45;3.63;;;0.50;;
80257;SDS011;69565;37.974;23.708;2023-05-16T11:11:42;3.08;;;0.70;;
80257;SDS011;69565;37.974;23.708;2023-05-16T11:19:34;3.30;;;0.70;;
80257;SDS011;69565;37.974;23.708;2023-05-16T11:24:49;5.68;;;0.60;;
80257;SDS011;69565;37.974;23.708;2023-05-16T11:27:29;2.90;;;0.60;;
80257;SDS011;69565;37.974;23.708;2023-05-16T11:32:35;2.67;;;0.60;;
80257;SDS011;69565;37.974;23.708;2023-05-16T11:35:03;2.83;;;0.50;;
80257;SDS011;69565;37.974;23.708;2023-05-16T11:37:31;7.47;;;0.60;;
80257;SDS011;69565;37.974;23.708;2023-05-16T11:40:00;3.28;;;0.68;;
80257;SDS011;69565;37.974;23.708;2023-05-16T11:42:33;11.02;;;0.68;;
80257;SDS011;69565;37.974;23.708;2023-05-16T11:47:30;1.17;;;0.60;;
80257;SDS011;69565;37.974;23.708;2023-05-16T11:49:56;1.30;;;0.70;;
80257;SDS011;69565;37.974;23.708;2023-05-16T11:52:22;3.42;;;0.70;;
80257;SDS011;69565;37.974;23.708;2023-05-16T11:54:48;3.63;;;0.70;;
80257;SDS011;69565;37.974;23.708;2023-05-16T11:57:15;2.03;;;0.60;;
80257;SDS011;69565;37.974;23.708;2023-05-16T11:59:41;2.90;;;0.68;;
80257;SDS011;69565;37.974;23.708;2023-05-16T12:02:07;3.03;;;0.70;;
80257;SDS011;69565;37.974;23.708;2023-05-16T12:04:34;1.67;;;0.60;;
80257;SDS011;69565;37.974;23.708;2023-05-16T12:07:02;5.80;;;0.77;;
80257;SDS011;69565;37.974;23.708;2023-05-16T12:09:29;3.00;;;0.63;;
80257;SDS011;69565;37.974;23.708;2023-05-16T12:11:55;4.15;;;0.80;;
80257;SDS011;69565;37.974;23.708;2023-05-16T12:14:21;2.35;;;0.70;;
80257;SDS011;69565;37.974;23.708;2023-05-16T12:16:47;2.13;;;0.80;;
80257;SDS011;69565;37.974;23.708;2023-05-16T12:19:15;4.35;;;0.80;;
80257;SDS011;69565;37.974;23.708;2023-05-16T12:21:41;2.47;;;0.70;;
80257;SDS011;69565;37.974;23.708;2023-05-16T12:24:10;3.25;;;0.70;;
80257;SDS011;69565;37.974;23.708;2023-05-16T12:26:40;5.53;;;0.80;;
80257;SDS011;69565;37.974;23.708;2023-05-16T12:29:07;6.65;;;0.90;;
80257;SDS011;69565;37.974;23.708;2023-05-16T12:31:35;4.40;;;0.80;;
80257;SDS011;69565;37.974;23.708;2023-05-16T12:34:03;9.20;;;1.00;;
80257;SDS011;69565;37.974;23.708;2023-05-16T12:36:32;10.68;;;1.00;;
80257;SDS011;69565;37.974;23.708;2023-05-16T12:39:01;2.83;;;0.82;;
80257;SDS011;69565;37.974;23.708;2023-05-16T12:41:28;3.65;;;0.90;;
80257;SDS011;69565;37.974;23.708;2023-05-16T12:46:50;7.07;;;0.70;;
80257;SDS011;69565;37.974;23.708;2023-05-16T12:49:19;7.32;;;0.70;;
80257;SDS011;69565;37.974;23.708;2023-05-16T12:51:50;5.68;;;0.77;;
80257;SDS011;69565;37.974;23.708;2023-05-16T12:54:17;3.92;;;0.70;;
80257;SDS011;69565;37.974;23.708;2023-05-16T12:56:43;2.25;;;0.70;;
80257;SDS011;69565;37.974;23.708;2023-05-16T12:59:09;4.20;;;0.50;;
80257;SDS011;69565;37.974;23.708;2023-05-16T13:01:36;4.63;;;0.80;;
80257;SDS011;69565;37.974;23.708;2023-05-16T13:04:02;5.40;;;0.70;;
80257;SDS011;69565;37.974;23.708;2023-05-16T13:06:28;5.32;;;0.70;;
80257;SDS011;69565;37.974;23.708;2023-05-16T13:08:55;7.40;;;0.70;;
80257;SDS011;69565;37.974;23.708;2023-05-16T13:11:21;4.07;;;0.75;;
80257;SDS011;69565;37.974;23.708;2023-05-16T13:13:48;4.35;;;0.80;;
80257;SDS011;69565;37.974;23.708;2023-05-16T13:16:13;2.08;;;0.65;;
80257;SDS011;69565;37.974;23.708;2023-05-16T13:18:41;6.10;;;0.70;;
80257;SDS011;69565;37.974;23.708;2023-05-16T13:21:07;4.05;;;0.75;;
80257;SDS011;69565;37.974;23.708;2023-05-16T13:23:35;4.45;;;0.60;;
80257;SDS011;69565;37.974;23.708;2023-05-16T13:26:01;5.63;;;0.70;;
80257;SDS011;69565;37.974;23.708;2023-05-16T13:28:29;2.33;;;0.70;;
80257;SDS011;69565;37.974;23.708;2023-05-16T13:30:56;2.17;;;0.60;;
80257;SDS011;69565;37.974;23.708;2023-05-16T13:33:21;3.20;;;0.60;;
80257;SDS011;69565;37.974;23.708;2023-05-16T13:35:48;1.88;;;0.70;;
80257;SDS011;69565;37.974;23.708;2023-05-16T13:38:15;4.45;;;0.70;;
80257;SDS011;69565;37.974;23.708;2023-05-16T13:40:41;2.20;;;0.70;;
80257;SDS011;69565;37.974;23.708;2023-05-16T13:43:07;5.00;;;0.70;;
80257;SDS011;69565;37.974;23.708;2023-05-16T13:45:32;2.67;;;0.63;;
80257;SDS011;69565;37.974;23.708;2023-05-16T13:48:00;2.35;;;0.68;;
80257;SDS011;69565;37.974;23.708;2023-05-16T13:50:26;3.42;;;0.80;;
80257;SDS011;69565;37.974;23.708;2023-05-16T13:52:51;16.63;;;1.30;;
80257;SDS011;69565;37.974;23.708;2023-05-16T13:55:17;4.82;;;0.80;;
80257;SDS011;69565;37.974;23.708;2023-05-16T13:57:43;2.75;;;0.60;;
80257;SDS011;69565;37.974;23.708;2023-05-16T14:00:10;3.55;;;0.80;;
80257;SDS011;69565;37.974;23.708;2023-05-16T14:02:39;7.65;;;0.80;;
80257;SDS011;69565;37.974;23.708;2023-05-16T14:05:06;1.77;;;0.75;;
80257;SDS011;69565;37.974;23.708;2023-05-16T14:07:33;4.97;;;0.90;;
80257;SDS011;69565;37.974;23.708;2023-05-16T14:09:59;6.00;;;0.70;;
80257;SDS011;69565;37.974;23.708;2023-05-16T14:12:25;5.93;;;0.90;;
80257;SDS011;69565;37.974;23.708;2023-05-16T14:14:51;8.32;;;1.08;;
80257;SDS011;69565;37.974;23.708;2023-05-16T14:17:18;6.82;;;1.05;;
80257;SDS011;69565;37.974;23.708;2023-05-16T14:19:44;4.28;;;1.05;;
80257;SDS011;69565;37.974;23.708;2023-05-16T14:22:10;5.30;;;0.95;;
80257;SDS011;69565;37.974;23.708;2023-05-16T14:24:36;5.38;;;0.90;;
80257;SDS011;69565;37.974;23.708;2023-05-16T14:27:01;4.93;;;0.95;;
80257;SDS011;69565;37.974;23.708;2023-05-16T14:29:27;11.98;;;1.38;;
80257;SDS011;69565;37.974;23.708;2023-05-16T14:31:53;3.85;;;1.00;;
80257;SDS011;69565;37.974;23.708;2023-05-16T14:34:19;6.15;;;0.90;;
80257;SDS011;69565;37.974;23.708;2023-05-16T14:36:46;6.30;;;0.93;;
80257;SDS011;69565;37.974;23.708;2023-05-16T14:39:12;9.02;;;1.10;;
80257;SDS011;69565;37.974;23.708;2023-05-16T14:41:38;6.35;;;1.00;;
80257;SDS011;69565;37.974;23.708;2023-05-16T14:44:04;4.35;;;1.00;;
80257;SDS011;69565;37.974;23.708;2023-05-16T14:46:30;6.47;;;1.10;;
80257;SDS011;69565;37.974;23.708;2023-05-16T14:48:55;3.13;;;0.90;;
80257;SDS011;69565;37.974;23.708;2023-05-16T14:51:21;2.92;;;0.90;;
80257;SDS011;69565;37.974;23.708;2023-05-16T14:53:47;6.90;;;1.08;;
80257;SDS011;69565;37.974;23.708;2023-05-16T14:56:13;14.50;;;2.00;;
80257;SDS011;69565;37.974;23.708;2023-05-16T14:58:40;10.88;;;1.42;;
80257;SDS011;69565;37.974;23.708;2023-05-16T15:01:07;7.80;;;1.45;;
80257;SDS011;69565;37.974;23.708;2023-05-16T15:03:33;8.77;;;1.40;;
80257;SDS011;69565;37.974;23.708;2023-05-16T15:05:59;18.58;;;1.40;;
80257;SDS011;69565;37.974;23.708;2023-05-16T15:08:24;7.18;;;1.30;;
80257;SDS011;69565;37.974;23.708;2023-05-16T15:10:50;13.02;;;1.90;;